Time;durP1;ratioP1;P1;durP2;ratioP2;P2;SDS_P1;SDS_P2;PMS_P1;PMS_P2;Temp;Humidity;BMP_temperature;BMP_pressure;BME280_temperature;BME280_humidity;BME280_pressure;Samples;Min_cycle;Max_cycle;Signal;HPM_P1;HPM_P2
2022/10/21 00:01:12;;;;;;;;;;;11.70;99.90;;;;;;6160980;23;20227;-75
2022/10/21 00:03:38;;;;;;;;;;;11.60;99.90;;;;;;6186582;23;19919;-75
2022/10/21 00:06:07;;;;;;;;;;;11.60;99.90;;;;;;6186974;23;19916;-74
2022/10/21 00:08:33;;;;;;;;;;;11.60;99.90;;;;;;6186894;23;19916;-75
2022/10/21 00:11:03;;;;;;;;;;;11.40;99.90;;;;;;6161402;23;19999;-74
2022/10/21 00:13:29;;;;;;;;;;;11.60;99.90;;;;;;6162046;23;19916;-75
2022/10/21 00:15:59;;;;;;;;;;;11.60;99.90;;;;;;6161693;23;19991;-75
2022/10/21 00:18:27;;;;;;;;;;;11.60;99.90;;;;;;6186358;23;19984;-74
2022/10/21 00:20:58;;;;;;;;;;;11.60;99.90;;;;;;6186439;23;19916;-75
2022/10/21 00:23:23;;;;;;;;;;;11.60;99.90;;;;;;6187624;23;19919;-73
2022/10/21 00:25:49;;;;;;;;;;;11.60;99.90;;;;;;6161464;23;19913;-74
2022/10/21 00:28:15;;;;;;;;;;;11.50;99.90;;;;;;6186250;23;19962;-75
2022/10/21 00:30:49;;;;;;;;;;;11.40;99.90;;;;;;6186603;23;19987;-75
2022/10/21 00:33:18;;;;;;;;;;;11.40;99.90;;;;;;6186386;23;19982;-74
2022/10/21 00:35:49;;;;;;;;;;;11.40;99.90;;;;;;6162128;23;20227;-76
2022/10/21 00:38:15;;;;;;;;;;;11.40;99.90;;;;;;6161682;23;19939;-76
2022/10/21 00:40:40;;;;;;;;;;;11.50;99.90;;;;;;6186635;23;19916;-74
2022/10/21 00:43:08;;;;;;;;;;;11.50;99.90;;;;;;6185310;23;19967;-75
2022/10/21 00:45:33;;;;;;;;;;;11.50;99.90;;;;;;6161418;23;19916;-74
2022/10/21 00:48:04;;;;;;;;;;;11.60;99.90;;;;;;6186754;23;19918;-75
2022/10/21 00:50:36;;;;;;;;;;;11.50;99.90;;;;;;6161934;23;19946;-75
2022/10/21 00:53:06;;;;;;;;;;;11.50;99.90;;;;;;6186466;23;19916;-76
2022/10/21 00:55:35;;;;;;;;;;;11.40;99.90;;;;;;6161610;23;20227;-74
2022/10/21 00:58:01;;;;;;;;;;;11.30;99.90;;;;;;6186438;23;20241;-74
2022/10/21 01:00:26;;;;;;;;;;;11.40;99.90;;;;;;6161688;23;19971;-75
2022/10/21 01:02:54;;;;;;;;;;;11.40;99.90;;;;;;6161269;23;19920;-75
2022/10/21 01:05:23;;;;;;;;;;;11.30;99.90;;;;;;6161996;23;19939;-74
2022/10/21 01:07:51;;;;;;;;;;;11.40;99.90;;;;;;6186322;23;19917;-74
2022/10/21 01:10:17;;;;;;;;;;;11.40;99.90;;;;;;6161486;23;20216;-73
2022/10/21 01:12:50;;;;;;;;;;;11.40;99.90;;;;;;6185395;23;19967;-75
2022/10/21 01:15:23;;;;;;;;;;;11.40;99.90;;;;;;6161698;23;19991;-75
2022/10/21 01:18:21;;;;;;;;;;;11.50;99.90;;;;;;6185141;23;20315;-75
2022/10/21 01:20:54;;;;;;;;;;;11.50;99.90;;;;;;6096699;23;20338;-74
2022/10/21 01:23:44;;;;;;;;;;;11.50;99.90;;;;;;6185787;23;20323;-73
2022/10/21 01:26:10;;;;;;;;;;;11.50;99.90;;;;;;6161699;23;19920;-76
2022/10/21 01:28:36;;;;;;;;;;;11.50;99.90;;;;;;6186098;23;19995;-75
2022/10/21 01:31:07;;;;;;;;;;;11.50;99.90;;;;;;6161285;23;19920;-75
2022/10/21 01:33:41;;;;;;;;;;;11.60;99.90;;;;;;6160768;23;19916;-75
2022/10/21 01:36:09;;;;;;;;;;;11.60;99.90;;;;;;6160972;23;20373;-74
2022/10/21 01:38:58;;;;;;;;;;;11.60;99.90;;;;;;6161849;23;20267;-74
2022/10/21 01:41:34;;;;;;;;;;;11.60;99.90;;;;;;6160906;23;19912;-73
2022/10/21 01:44:03;;;;;;;;;;;11.60;99.90;;;;;;6185750;23;20335;-74
2022/10/21 01:46:35;;;;;;;;;;;11.60;99.90;;;;;;6160762;23;19924;-74
2022/10/21 01:49:05;;;;;;;;;;;11.60;99.90;;;;;;6160908;23;19916;-74
2022/10/21 01:51:31;;;;;;;;;;;11.60;99.90;;;;;;6185736;23;20331;-75
2022/10/21 01:54:04;;;;;;;;;;;11.70;99.90;;;;;;6161223;23;19919;-76
2022/10/21 01:56:30;;;;;;;;;;;11.60;99.90;;;;;;6185944;23;19920;-75
2022/10/21 01:59:01;;;;;;;;;;;11.60;99.90;;;;;;6184575;23;19913;-75
2022/10/21 02:01:31;;;;;;;;;;;11.60;99.90;;;;;;6186618;23;19955;-74
2022/10/21 02:03:59;;;;;;;;;;;11.50;99.90;;;;;;6185623;23;19916;-74
2022/10/21 02:06:25;;;;;;;;;;;11.60;99.90;;;;;;6160704;23;19912;-74
2022/10/21 02:08:54;;;;;;;;;;;11.50;99.90;;;;;;6185835;23;19995;-75
2022/10/21 02:11:25;;;;;;;;;;;11.50;99.90;;;;;;6160613;23;19912;-74
2022/10/21 02:13:56;;;;;;;;;;;11.70;99.90;;;;;;6136833;23;19960;-75
2022/10/21 02:16:24;;;;;;;;;;;11.40;99.90;;;;;;6160528;23;19966;-73
2022/10/21 02:18:50;;;;;;;;;;;11.60;99.90;;;;;;6160877;23;19958;-76
2022/10/21 02:21:18;;;;;;;;;;;11.60;99.90;;;;;;6186021;23;19912;-76
2022/10/21 02:24:02;;;;;;;;;;;11.60;99.90;;;;;;6184953;23;19943;-74
2022/10/21 02:26:35;;;;;;;;;;;11.70;99.90;;;;;;6161032;23;20219;-74
2022/10/21 02:29:03;;;;;;;;;;;11.70;99.90;;;;;;6161024;23;19939;-74
2022/10/21 02:31:50;;;;;;;;;;;11.90;99.90;;;;;;6185895;23;19982;-76
2022/10/21 02:34:40;;;;;;;;;;;11.90;99.90;;;;;;6185350;23;19912;-75
2022/10/21 02:37:09;;;;;;;;;;;11.90;99.90;;;;;;6104436;23;19916;-76
2022/10/21 02:39:43;;;;;;;;;;;12.00;99.90;;;;;;6185564;23;19912;-74
2022/10/21 02:42:10;;;;;;;;;;;12.10;99.90;;;;;;6160755;23;19919;-75
2022/10/21 02:44:39;;;;;;;;;;;12.10;99.90;;;;;;6160960;23;20238;-76
2022/10/21 02:50:23;;;;;;;;;;;12.20;99.90;;;;;;6185545;23;19912;-75
2022/10/21 02:53:09;;;;;;;;;;;12.30;99.90;;;;;;6179911;23;19912;-75
2022/10/21 02:55:37;;;;;;;;;;;12.20;99.90;;;;;;6160107;23;20010;-76
2022/10/21 02:58:03;;;;;;;;;;;12.30;99.90;;;;;;6160052;23;20338;-75
2022/10/21 03:00:38;;;;;;;;;;;12.20;99.90;;;;;;6160829;23;19916;-76
2022/10/21 03:03:30;;;;;;;;;;;12.10;99.90;;;;;;6159832;23;19918;-76
2022/10/21 03:05:58;;;;;;;;;;;12.20;99.90;;;;;;6183966;23;19916;-75
2022/10/21 03:08:29;;;;;;;;;;;12.20;99.90;;;;;;6185263;23;19922;-75
2022/10/21 03:11:00;;;;;;;;;;;12.20;99.90;;;;;;6135101;23;19912;-77
2022/10/21 03:13:42;;;;;;;;;;;12.30;99.90;;;;;;6183906;23;19912;-76
2022/10/21 03:16:11;;;;;;;;;;;12.40;99.90;;;;;;6159402;23;19912;-75
2022/10/21 03:18:52;;;;;;;;;;;12.30;99.90;;;;;;6160260;23;19965;-76
2022/10/21 03:21:23;;;;;;;;;;;12.40;99.90;;;;;;6184727;23;19913;-76
2022/10/21 03:24:00;;;;;;;;;;;12.40;99.90;;;;;;6161907;23;19919;-76
2022/10/21 03:26:28;;;;;;;;;;;12.40;99.90;;;;;;6184903;23;20226;-76
2022/10/21 03:29:03;;;;;;;;;;;12.40;99.90;;;;;;6159733;23;19920;-74
2022/10/21 03:31:31;;;;;;;;;;;12.50;99.90;;;;;;6184734;23;19912;-76
2022/10/21 03:33:59;;;;;;;;;;;12.50;99.90;;;;;;6160827;23;19912;-75
2022/10/21 03:36:33;;;;;;;;;;;12.60;99.90;;;;;;6160553;23;20286;-76
2022/10/21 03:38:59;;;;;;;;;;;12.60;99.90;;;;;;6159654;23;19912;-76
2022/10/21 03:41:31;;;;;;;;;;;12.70;99.90;;;;;;6184772;23;20322;-76
2022/10/21 03:44:04;;;;;;;;;;;12.70;99.90;;;;;;6184895;23;19919;-75
2022/10/21 03:46:35;;;;;;;;;;;12.70;99.90;;;;;;6159026;23;19920;-75
2022/10/21 03:49:04;;;;;;;;;;;12.50;99.90;;;;;;6160050;23;20327;-74
2022/10/21 03:51:34;;;;;;;;;;;12.80;99.90;;;;;;6160687;23;19951;-74
2022/10/21 03:54:03;;;;;;;;;;;12.80;99.90;;;;;;6184688;23;20298;-75
2022/10/21 03:56:35;;;;;;;;;;;12.90;99.90;;;;;;6184559;23;19927;-76
2022/10/21 03:59:03;;;;;;;;;;;12.80;99.90;;;;;;6159972;23;19916;-75
2022/10/21 04:01:31;;;;;;;;;;;12.90;99.90;;;;;;6184982;23;19931;-76
2022/10/21 04:03:59;;;;;;;;;;;12.90;99.90;;;;;;6160121;23;19912;-75
2022/10/21 04:06:28;;;;;;;;;;;12.90;99.90;;;;;;6160004;23;19943;-75
2022/10/21 04:08:53;;;;;;;;;;;12.90;99.90;;;;;;6184749;23;20311;-74
2022/10/21 04:11:27;;;;;;;;;;;12.90;99.90;;;;;;6184865;23;19913;-74
2022/10/21 04:13:55;;;;;;;;;;;13.00;99.90;;;;;;6184357;23;19987;-74
2022/10/21 04:16:21;;;;;;;;;;;13.00;99.90;;;;;;6184180;23;19920;-76
2022/10/21 04:18:54;;;;;;;;;;;12.90;99.90;;;;;;6184708;23;19991;-74
2022/10/21 04:21:26;;;;;;;;;;;12.90;99.90;;;;;;6185241;23;20257;-73
2022/10/21 04:23:54;;;;;;;;;;;12.80;99.90;;;;;;6184389;23;20315;-74
2022/10/21 04:26:22;;;;;;;;;;;12.80;99.90;;;;;;6184269;23;20101;-74
2022/10/21 04:28:48;;;;;;;;;;;12.90;99.90;;;;;;6184339;23;19970;-76
2022/10/21 04:31:16;;;;;;;;;;;13.00;99.90;;;;;;6159032;23;19916;-75
2022/10/21 04:33:52;;;;;;;;;;;;;;;;;;;;;
2022/10/21 04:36:34;;;;;;;;;;;12.90;99.90;;;;;;6183867;23;19952;-75
2022/10/21 04:39:05;;;;;;;;;;;12.90;99.90;;;;;;6182775;23;19916;-74
2022/10/21 04:41:31;;;;;;;;;;;13.00;99.90;;;;;;6159478;23;20399;-74
2022/10/21 04:44:02;;;;;;;;;;;13.00;99.90;;;;;;6160403;23;19912;-74
2022/10/21 04:46:28;;;;;;;;;;;13.00;99.90;;;;;;6159746;23;20298;-74
2022/10/21 04:48:57;;;;;;;;;;;13.00;99.90;;;;;;6161876;23;19916;-75
2022/10/21 04:51:25;;;;;;;;;;;13.00;99.90;;;;;;6161301;23;19991;-74
2022/10/21 04:53:53;;;;;;;;;;;13.00;99.90;;;;;;6186477;23;19912;-74
2022/10/21 04:56:28;;;;;;;;;;;13.00;99.90;;;;;;6186251;23;19916;-76
2022/10/21 04:58:56;;;;;;;;;;;13.00;99.90;;;;;;6161486;23;20282;-75
2022/10/21 05:01:21;;;;;;;;;;;13.00;99.90;;;;;;6161551;23;19960;-75
2022/10/21 05:03:47;;;;;;;;;;;13.00;99.90;;;;;;6161526;23;19927;-75
2022/10/21 05:06:18;;;;;;;;;;;12.90;99.90;;;;;;6160636;23;20301;-75
2022/10/21 05:08:55;;;;;;;;;;;13.00;99.90;;;;;;6186437;23;19935;-75
2022/10/21 05:11:26;;;;;;;;;;;12.90;99.90;;;;;;6161711;23;19991;-75
2022/10/21 05:13:54;;;;;;;;;;;13.00;99.90;;;;;;6186083;23;19913;-75
2022/10/21 05:16:22;;;;;;;;;;;13.00;99.90;;;;;;6160631;23;19916;-75
2022/10/21 05:18:55;;;;;;;;;;;13.00;99.90;;;;;;6186251;23;20234;-74
2022/10/21 05:21:21;;;;;;;;;;;13.00;99.90;;;;;;6161102;23;19920;-76
2022/10/21 05:24:00;;;;;;;;;;;13.00;99.90;;;;;;6161799;23;19973;-75
2022/10/21 05:26:27;;;;;;;;;;;12.90;99.90;;;;;;6161520;23;19923;-76
2022/10/21 05:28:55;;;;;;;;;;;12.90;99.90;;;;;;6136903;23;19948;-75
2022/10/21 05:31:30;;;;;;;;;;;12.90;99.90;;;;;;6186182;23;19979;-75
2022/10/21 05:33:58;;;;;;;;;;;12.80;99.90;;;;;;6161361;23;20342;-75
2022/10/21 05:36:33;;;;;;;;;;;12.80;99.90;;;;;;6161055;23;19913;-75
2022/10/21 05:38:58;;;;;;;;;;;12.80;99.90;;;;;;6161173;23;19943;-74
2022/10/21 05:41:26;;;;;;;;;;;12.60;99.90;;;;;;6185942;23;19916;-74
2022/10/21 05:43:52;;;;;;;;;;;12.70;99.90;;;;;;6160917;23;19916;-75
2022/10/21 05:46:18;;;;;;;;;;;12.70;99.90;;;;;;6192924;23;19907;-75
2022/10/21 05:48:43;;;;;;;;;;;12.70;99.90;;;;;;6189566;23;19944;-75
2022/10/21 05:51:09;;;;;;;;;;;12.70;99.90;;;;;;6214445;23;19911;-75
2022/10/21 05:53:38;;;;;;;;;;;12.60;99.90;;;;;;6188807;23;19904;-75
2022/10/21 05:56:06;;;;;;;;;;;12.50;99.90;;;;;;6202654;23;19923;-74
2022/10/21 05:58:43;;;;;;;;;;;12.40;99.90;;;;;;6141176;23;19928;-74
2022/10/21 06:01:09;;;;;;;;;;;12.40;99.90;;;;;;6161076;23;20323;-75
2022/10/21 06:03:37;;;;;;;;;;;12.30;99.90;;;;;;6160633;23;19919;-74
2022/10/21 06:06:04;;;;;;;;;;;12.30;99.90;;;;;;6160578;23;19912;-74
2022/10/21 06:08:43;;;;;;;;;;;12.20;99.90;;;;;;6161136;23;19966;-74
2022/10/21 06:11:12;;;;;;;;;;;12.30;99.90;;;;;;6160889;23;19912;-75
2022/10/21 06:13:41;;;;;;;;;;;12.30;99.90;;;;;;6185643;23;19958;-75
2022/10/21 06:16:16;;;;;;;;;;;12.20;99.90;;;;;;6185790;23;19952;-75
2022/10/21 06:18:42;;;;;;;;;;;12.20;99.90;;;;;;6185653;23;19923;-74
2022/10/21 06:21:16;;;;;;;;;;;12.20;99.90;;;;;;6185568;23;20229;-74
2022/10/21 06:23:45;;;;;;;;;;;12.20;99.90;;;;;;6185335;23;19963;-76
2022/10/21 06:26:14;;;;;;;;;;;12.10;99.90;;;;;;6160626;23;19919;-74
2022/10/21 06:28:45;;;;;;;;;;;12.10;99.90;;;;;;6160183;23;19966;-74
2022/10/21 06:31:24;;;;;;;;;;;12.20;99.90;;;;;;6185129;23;19923;-75
2022/10/21 06:33:53;;;;;;;;;;;12.30;99.90;;;;;;6185285;23;19912;-75
2022/10/21 06:39:04;;;;;;;;;;;12.30;99.90;;;;;;6174514;23;19943;-71
2022/10/21 06:41:30;;;;;;;;;;;12.40;99.90;;;;;;6160475;23;19912;-75
2022/10/21 07:53:24;;;;;;;;;;;13.40;99.90;;;;;;5866210;24;19920;-72
2022/10/21 07:56:28;;;;;;;;;;;;;;;;;;;;;
2022/10/21 07:59:38;;;;;;;;;;;13.30;99.90;;;;;;5898459;24;20328;-72
2022/10/21 08:02:59;;;;;;;;;;;13.50;99.90;;;;;;5791470;24;19917;-72
2022/10/21 08:05:31;;;;;;;;;;;13.60;99.90;;;;;;5910504;24;20349;-72
2022/10/21 08:08:23;;;;;;;;;;;13.60;99.90;;;;;;6020021;23;19913;-72
2022/10/21 08:17:07;;;;;;;;;;;13.60;99.90;;;;;;6094810;23;19951;-71
2022/10/21 08:23:25;;;;;;;;;;;;;;;;;;;;;
2022/10/21 08:29:07;;;;;;;;;;;13.70;99.90;;;;;;6045874;23;19913;-71
2022/10/21 08:31:33;;;;;;;;;;;13.80;99.90;;;;;;6127175;23;19912;-71
2022/10/21 08:34:01;;;;;;;;;;;13.70;99.90;;;;;;6137569;23;19923;-72
2022/10/21 08:36:29;;;;;;;;;;;13.80;99.90;;;;;;6161878;23;19952;-71
2022/10/21 08:38:55;;;;;;;;;;;13.80;99.90;;;;;;6161702;23;19920;-71
2022/10/21 08:41:29;;;;;;;;;;;13.80;99.90;;;;;;6137241;23;19924;-71
2022/10/21 08:43:59;;;;;;;;;;;13.80;99.90;;;;;;6136957;23;19921;-71
2022/10/21 08:46:34;;;;;;;;;;;13.90;99.90;;;;;;6161682;23;19943;-72
2022/10/21 08:49:11;;;;;;;;;;;13.90;99.90;;;;;;6161559;23;20320;-71
2022/10/21 08:51:40;;;;;;;;;;;13.90;99.90;;;;;;6188047;23;20235;-73
2022/10/21 08:54:15;;;;;;;;;;;14.00;99.90;;;;;;6135997;23;19916;-72
2022/10/21 08:56:45;;;;;;;;;;;14.10;99.90;;;;;;6136888;23;19916;-73
2022/10/21 08:59:42;;;;;;;;;;;14.10;99.90;;;;;;6161460;23;19916;-74
2022/10/21 09:02:28;;;;;;;;;;;14.20;99.90;;;;;;6160411;23;19917;-74
2022/10/21 09:04:53;;;;;;;;;;;14.20;99.90;;;;;;6159823;23;19912;-77
2022/10/21 09:07:36;;;;;;;;;;;14.30;99.90;;;;;;6136788;23;19934;-71
2022/10/21 09:10:15;;;;;;;;;;;14.30;99.90;;;;;;6137446;23;20209;-72
2022/10/21 09:12:59;;;;;;;;;;;14.30;99.90;;;;;;6161520;23;19917;-74
2022/10/21 09:15:30;;;;;;;;;;;14.40;99.90;;;;;;6136944;23;19927;-73
2022/10/21 09:17:55;;;;;;;;;;;14.40;99.90;;;;;;6161643;23;20301;-74
2022/10/21 12:29:48;;;;;;;;;;;;;;;;;;;;;
2022/10/21 12:56:56;;;;;;;;;;;16.70;99.90;;;;;;6038959;23;19913;-71
2022/10/21 12:59:25;;;;;;;;;;;16.70;99.90;;;;;;6008040;23;19954;-72
2022/10/21 13:33:25;;;;;;;;;;;16.60;99.90;;;;;;6185614;23;19920;-72
2022/10/21 13:36:20;;;;;;;;;;;16.70;99.90;;;;;;6161738;23;20277;-71
2022/10/21 13:38:48;;;;;;;;;;;16.60;99.90;;;;;;6130410;23;19920;-72
2022/10/21 13:41:20;;;;;;;;;;;16.60;99.90;;;;;;6161117;23;20231;-73
2022/10/21 13:43:48;;;;;;;;;;;16.50;99.90;;;;;;6161248;23;19916;-72
2022/10/21 13:46:19;;;;;;;;;;;16.50;99.90;;;;;;6185656;23;20322;-71
2022/10/21 13:48:48;;;;;;;;;;;16.50;99.90;;;;;;6160859;23;19916;-73
2022/10/21 13:51:21;;;;;;;;;;;16.60;99.90;;;;;;6185655;23;19919;-72
2022/10/21 13:53:47;;;;;;;;;;;16.50;99.90;;;;;;6161140;23;19912;-72
2022/10/21 13:56:19;;;;;;;;;;;16.60;99.90;;;;;;6187491;23;19919;-72
2022/10/21 13:58:47;;;;;;;;;;;16.60;99.90;;;;;;6161102;23;19916;-72
2022/10/21 14:01:17;;;;;;;;;;;16.70;99.90;;;;;;6161091;23;19916;-72
2022/10/21 14:03:43;;;;;;;;;;;16.60;99.90;;;;;;6185633;23;19916;-73
2022/10/21 14:06:30;;;;;;;;;;;16.70;99.90;;;;;;6185829;23;19972;-72
2022/10/21 14:08:59;;;;;;;;;;;16.70;99.90;;;;;;6185499;23;19924;-72
2022/10/21 14:11:26;;;;;;;;;;;16.60;99.90;;;;;;6185821;23;19923;-73
2022/10/21 14:13:52;;;;;;;;;;;16.70;99.90;;;;;;6185617;23;19916;-73
2022/10/21 14:16:29;;;;;;;;;;;16.60;99.90;;;;;;6185798;23;19920;-72
2022/10/21 14:18:55;;;;;;;;;;;16.70;99.90;;;;;;6161148;23;19916;-72
2022/10/21 14:21:31;;;;;;;;;;;16.60;99.90;;;;;;6160545;23;20323;-72
2022/10/21 14:24:02;;;;;;;;;;;16.60;99.90;;;;;;6184138;23;19920;-74
2022/10/21 14:26:57;;;;;;;;;;;16.50;99.90;;;;;;6183540;23;19979;-72
2022/10/21 14:33:24;;;;;;;;;;;16.50;99.90;;;;;;6183142;23;19916;-76
2022/10/21 14:36:08;;;;;;;;;;;16.50;99.90;;;;;;6183167;23;20066;-72
2022/10/21 14:38:39;;;;;;;;;;;16.40;99.90;;;;;;6158791;23;19981;-75
2022/10/21 14:41:25;;;;;;;;;;;16.30;99.90;;;;;;6159103;23;19920;-77
2022/10/21 14:44:14;;;;;;;;;;;16.30;99.90;;;;;;6183334;23;19916;-80
2022/10/21 14:47:20;;;;;;;;;;;16.30;99.90;;;;;;6183799;23;19987;-74
2022/10/21 14:56:55;;;;;;;;;;;;;;;;;;;;;
2022/10/21 15:23:47;;;;;;;;;;;16.00;99.90;;;;;;5979132;24;19919;-78
2022/10/21 15:26:25;;;;;;;;;;;16.00;99.90;;;;;;5896904;24;19999;-75
2022/10/21 15:28:57;;;;;;;;;;;16.00;99.90;;;;;;5846220;24;19922;-72
2022/10/21 15:32:02;;;;;;;;;;;;;;;;;;;;;
2022/10/21 15:42:24;;;;;;;;;;;15.90;99.90;;;;;;6031353;23;19920;-72
2022/10/21 15:45:11;;;;;;;;;;;15.90;99.90;;;;;;6012300;23;20338;-76
2022/10/21 15:47:37;;;;;;;;;;;15.90;99.90;;;;;;6117511;23;20227;-78
2022/10/21 15:50:08;;;;;;;;;;;15.90;99.90;;;;;;6135675;23;19912;-78
2022/10/21 15:52:34;;;;;;;;;;;15.90;99.90;;;;;;6135673;23;19918;-78
2022/10/21 15:55:00;;;;;;;;;;;15.90;99.90;;;;;;6135587;23;19948;-77
2022/10/21 15:57:25;;;;;;;;;;;15.90;99.90;;;;;;6135095;23;19912;-81
2022/10/21 15:59:51;;;;;;;;;;;15.80;99.90;;;;;;6135753;23;20231;-79
2022/10/21 16:02:17;;;;;;;;;;;15.80;99.90;;;;;;6134761;23;19920;-79
2022/10/21 16:04:43;;;;;;;;;;;15.80;99.90;;;;;;6135326;23;20334;-77
2022/10/21 16:07:19;;;;;;;;;;;15.80;99.90;;;;;;6136154;23;19918;-77
2022/10/21 16:09:45;;;;;;;;;;;15.80;99.90;;;;;;6135729;23;20319;-79
2022/10/21 16:12:13;;;;;;;;;;;15.80;99.90;;;;;;6135607;23;19969;-77
2022/10/21 16:14:38;;;;;;;;;;;15.70;99.90;;;;;;6151395;23;19960;-76
2022/10/21 16:17:27;;;;;;;;;;;15.70;99.90;;;;;;6161442;23;19900;-73
2022/10/21 16:23:12;;;;;;;;;;;15.60;99.90;;;;;;6171192;23;19923;-76
2022/10/21 16:26:15;;;;;;;;;;;15.60;99.90;;;;;;6129681;23;19920;-78
2022/10/21 16:28:58;;;;;;;;;;;15.50;99.90;;;;;;6088141;23;20319;-81
2022/10/21 16:32:08;;;;;;;;;;;15.40;99.90;;;;;;6134202;23;19995;-82
2022/10/21 16:35:06;;;;;;;;;;;15.30;99.90;;;;;;6153562;23;20323;-79
2022/10/21 16:41:34;;;;;;;;;;;;;;;;;;;;;
2022/10/21 16:44:27;;;;;;;;;;;15.20;99.90;;;;;;6030783;23;20311;-77
2022/10/21 18:02:54;;;;;;;;;;;13.90;99.90;;;;;;5931940;23;19929;-76
2022/10/21 18:05:29;;;;;;;;;;;13.80;99.90;;;;;;5993324;23;19957;-77
2022/10/21 18:11:33;;;;;;;;;;;13.80;99.90;;;;;;6033870;23;19921;-76
2022/10/21 18:40:52;;;;;;;;;;;13.40;99.90;;;;;;6150179;23;20234;-75
2022/10/21 18:47:46;;;;;;;;;;;13.30;99.90;;;;;;6113405;23;19952;-75
2022/10/21 18:57:54;;;;;;;;;;;13.20;99.90;;;;;;6037929;23;19918;-73
2022/10/21 19:00:23;;;;;;;;;;;13.00;99.90;;;;;;6000920;23;19921;-75
2022/10/21 19:02:48;;;;;;;;;;;13.10;99.90;;;;;;6077258;23;19913;-74
2022/10/21 19:05:14;;;;;;;;;;;13.20;99.90;;;;;;6100742;23;20320;-74
2022/10/21 19:07:43;;;;;;;;;;;13.00;99.90;;;;;;6101117;23;19913;-74
2022/10/21 19:10:09;;;;;;;;;;;13.10;99.90;;;;;;6101076;23;19924;-74
2022/10/21 19:12:34;;;;;;;;;;;13.10;99.90;;;;;;6125950;23;19925;-75
2022/10/21 19:15:02;;;;;;;;;;;13.00;99.90;;;;;;6100474;23;19913;-75
2022/10/21 19:17:28;;;;;;;;;;;13.00;99.90;;;;;;6101083;23;19917;-78
2022/10/21 19:19:54;;;;;;;;;;;13.00;99.90;;;;;;6100970;23;19913;-72
2022/10/21 19:22:29;;;;;;;;;;;13.20;99.90;;;;;;6100510;23;19913;-76
2022/10/21 19:24:54;;;;;;;;;;;13.10;99.90;;;;;;6100708;23;19916;-74
2022/10/21 19:27:20;;;;;;;;;;;13.10;99.90;;;;;;6103806;23;19968;-71
2022/10/21 19:29:46;;;;;;;;;;;13.10;99.90;;;;;;6090564;23;19936;-71
2022/10/21 19:32:12;;;;;;;;;;;13.00;99.90;;;;;;6108229;23;19940;-72
2022/10/21 19:34:47;;;;;;;;;;;13.10;99.90;;;;;;6126578;23;19924;-78
2022/10/21 19:46:09;;;;;;;;;;;13.00;99.90;;;;;;6184257;23;20270;-75
2022/10/21 19:49:07;;;;;;;;;;;;;;;;;;;;;
2022/10/21 20:11:36;;;;;;;;;;;12.90;99.90;;;;;;6166582;23;19917;-83
2022/10/21 20:14:03;;;;;;;;;;;13.00;99.90;;;;;;6115530;23;19916;-73
2022/10/21 20:16:40;;;;;;;;;;;13.00;99.90;;;;;;6075442;23;20263;-79
2022/10/21 20:19:36;;;;;;;;;;;12.90;99.90;;;;;;6075611;23;20216;-79
2022/10/21 20:22:48;;;;;;;;;;;13.00;99.90;;;;;;6095202;23;19938;-77
2022/10/21 20:28:47;;;;;;;;;;;12.90;99.90;;;;;;6121061;23;19913;-78
